Time;durP1;ratioP1;P1;durP2;ratioP2;P2;SDS_P1;SDS_P2;PMS_P1;PMS_P2;Temp;Humidity;BMP_temperature;BMP_pressure;BME280_temperature;BME280_humidity;BME280_pressure;Samples;Min_cycle;Max_cycle;Signal;HPM_P1;HPM_P2
2023/03/21 00:00:56;;;;;;;20.55;8.13;;;;;;;-148.88;100.00;76374.44;5017319;28;20026;-84
2023/03/21 00:03:22;;;;;;;15.13;7.53;;;;;;;-148.88;100.00;76380.53;5019151;28;20026;-82
2023/03/21 00:05:50;;;;;;;20.30;7.55;;;;;;;-148.88;100.00;76382.56;5001873;28;20032;-82
2023/03/21 00:08:17;;;;;;;27.33;8.65;;;;;;;-148.88;100.00;76370.38;5018906;28;20026;-84
2023/03/21 00:10:43;;;;;;;19.05;7.32;;;;;;;-148.88;100.00;76384.59;5018827;28;20049;-84
2023/03/21 00:13:11;;;;;;;19.85;8.93;;;;;;;-148.88;100.00;76386.63;5001439;28;20025;-84
2023/03/21 00:15:48;;;;;;;20.42;8.70;;;;;;;-148.88;100.00;76370.38;5002141;28;20032;-84
2023/03/21 00:18:15;;;;;;;18.55;8.73;;;;;;;-148.88;100.00;76378.50;5001984;28;20172;-82
2023/03/21 00:20:40;;;;;;;15.25;7.93;;;;;;;-148.88;100.00;76402.88;5019873;28;20385;-84
2023/03/21 00:23:06;;;;;;;21.38;8.85;;;;;;;-148.88;100.00;76384.59;5002177;28;20084;-84
2023/03/21 00:25:31;;;;;;;19.70;8.73;;;;;;;-148.88;100.00;76378.50;5001829;28;20038;-84
2023/03/21 00:27:57;;;;;;;19.05;9.00;;;;;;;-148.88;100.00;76390.69;5019646;28;20021;-85
2023/03/21 00:30:22;;;;;;;24.15;9.52;;;;;;;-148.88;100.00;76374.44;5019282;28;20076;-84
2023/03/21 00:32:48;;;;;;;21.85;9.70;;;;;;;-148.88;100.00;76382.56;5017538;28;20033;-84
2023/03/21 00:35:14;;;;;;;26.80;14.60;;;;;;;-148.88;100.00;76374.44;5014232;28;20072;-84
2023/03/21 00:37:39;;;;;;;22.75;15.13;;;;;;;-148.88;100.00;76374.44;5019660;28;20483;-84
2023/03/21 00:40:09;;;;;;;20.27;8.48;;;;;;;-148.88;100.00;76370.38;5020251;28;20022;-82
2023/03/21 00:42:34;;;;;;;19.52;8.20;;;;;;;-148.88;100.00;76360.22;5002282;28;20114;-82
2023/03/21 00:45:00;;;;;;;17.13;8.20;;;;;;;-148.88;100.00;76362.25;5002544;28;20053;-82
2023/03/21 00:47:26;;;;;;;18.48;8.70;;;;;;;-148.88;100.00;76368.34;5019245;28;20037;-82
2023/03/21 00:49:51;;;;;;;21.85;14.13;;;;;;;-148.88;100.00;76358.19;5019786;28;20030;-82
2023/03/21 00:52:16;;;;;;;19.83;8.90;;;;;;;-148.88;100.00;76358.19;5001190;28;20026;-82
2023/03/21 00:54:42;;;;;;;21.50;9.88;;;;;;;-148.88;100.00;76366.31;5001442;28;20085;-82
2023/03/21 00:57:07;;;;;;;23.30;8.80;;;;;;;-148.88;100.00;76358.19;5000963;28;20033;-83
2023/03/21 00:59:32;;;;;;;25.38;9.35;;;;;;;-148.88;100.00;76354.13;5019415;28;20053;-82
2023/03/21 01:01:59;;;;;;;21.30;9.07;;;;;;;-148.88;100.00;76354.13;5019147;28;20030;-82
2023/03/21 01:04:25;;;;;;;20.25;9.85;;;;;;;-148.88;100.00;76358.19;5019267;28;20026;-82
2023/03/21 01:06:52;;;;;;;19.17;9.50;;;;;;;-148.88;100.00;76358.19;5019029;28;20507;-84
2023/03/21 01:09:23;;;;;;;21.83;9.93;;;;;;;-148.88;100.00;76356.16;4999979;28;20040;-82
2023/03/21 01:11:49;;;;;;;33.05;18.55;;;;;;;-148.88;100.00;76354.13;5018000;28;20030;-82
2023/03/21 01:14:17;;;;;;;29.40;10.40;;;;;;;-148.88;100.00;76362.25;5019988;28;20026;-82
2023/03/21 01:16:43;;;;;;;26.98;10.45;;;;;;;-148.88;100.00;76354.13;5001412;28;20022;-82
2023/03/21 01:19:11;;;;;;;24.40;10.70;;;;;;;-148.88;100.00;76356.16;5001771;28;20095;-83
2023/03/21 01:21:37;;;;;;;31.70;10.75;;;;;;;-148.88;100.00;76350.06;5020299;28;20026;-82
2023/03/21 01:24:02;;;;;;;23.77;10.35;;;;;;;-148.88;100.00;76370.38;5019973;28;20036;-82
2023/03/21 01:26:28;;;;;;;33.83;18.75;;;;;;;-148.88;100.00;76362.25;5018929;28;20025;-82
2023/03/21 01:28:53;;;;;;;26.13;11.27;;;;;;;-148.88;100.00;76362.25;5019231;28;20514;-82
2023/03/21 01:31:19;;;;;;;22.45;11.00;;;;;;;-148.88;100.00;76366.31;5019829;28;20029;-82
2023/03/21 01:33:44;;;;;;;28.45;11.18;;;;;;;-148.88;100.00;76362.25;5019751;28;20484;-82
2023/03/21 01:36:16;;;;;;;27.85;12.25;;;;;;;-148.88;100.00;76364.28;5001487;28;20045;-84
2023/03/21 01:38:42;;;;;;;26.23;11.05;;;;;;;-148.88;100.00;76358.19;5000916;28;20475;-84
2023/03/21 01:41:29;;;;;;;29.35;12.27;;;;;;;-148.88;100.00;76354.13;5000529;28;20064;-84
2023/03/21 01:43:54;;;;;;;31.60;13.40;;;;;;;-148.88;100.00;76348.03;4996222;28;20488;-83
2023/03/21 01:46:40;;;;;;;29.52;12.20;;;;;;;-148.88;100.00;76354.13;4996270;28;20061;-81
2023/03/21 01:49:12;;;;;;;29.45;13.43;;;;;;;-148.88;100.00;76362.25;4995214;28;20022;-81
2023/03/21 01:51:42;;;;;;;33.05;14.65;;;;;;;-148.88;100.00;76337.88;5013328;28;20040;-83
2023/03/21 01:54:14;;;;;;;37.33;14.50;;;;;;;-148.88;100.00;76333.81;4995698;28;20113;-83
2023/03/21 01:56:43;;;;;;;35.97;14.48;;;;;;;-148.88;100.00;76333.81;4995926;28;20117;-83
2023/03/21 01:59:38;;;;;;;35.13;15.25;;;;;;;-148.88;100.00;76337.88;5013284;28;20022;-83
2023/03/21 02:02:08;;;;;;;36.55;15.88;;;;;;;-148.88;100.00;76329.75;5013337;28;20022;-83
2023/03/21 02:04:36;;;;;;;45.78;15.23;;;;;;;-148.88;100.00;76329.75;5013022;28;20026;-84
2023/03/21 02:07:16;;;;;;;39.97;16.45;;;;;;;-148.88;100.00;76325.69;4995383;28;20025;-84
2023/03/21 02:09:46;;;;;;;41.45;16.83;;;;;;;-148.88;100.00;76329.75;5013568;28;20551;-84
2023/03/21 02:12:11;;;;;;;39.58;17.42;;;;;;;-148.88;100.00;76313.50;5012965;28;20539;-84
2023/03/21 02:14:37;;;;;;;51.42;19.05;;;;;;;-148.88;100.00;76305.38;5013832;28;20106;-83
2023/03/21 02:17:17;;;;;;;41.00;17.88;;;;;;;-148.88;100.00;76301.31;5013413;28;20030;-84
2023/03/21 02:20:07;;;;;;;46.47;18.73;;;;;;;-148.88;100.00;76301.31;4997424;28;20048;-84
2023/03/21 02:22:57;;;;;;;40.33;18.02;;;;;;;-148.88;100.00;76295.22;5019396;28;20022;-84
2023/03/21 02:25:32;;;;;;;49.45;18.73;;;;;;;-148.88;100.00;76293.19;5016411;28;20112;-83
2023/03/21 02:28:11;;;;;;;43.08;18.33;;;;;;;-148.88;100.00;76295.22;4998775;28;20028;-83
2023/03/21 02:31:04;;;;;;;40.78;18.58;;;;;;;-148.88;100.00;76295.22;5016835;28;20022;-84
2023/03/21 02:33:53;;;;;;;48.67;19.95;;;;;;;-148.88;100.00;76289.13;4999019;28;20029;-83
2023/03/21 02:36:29;;;;;;;45.83;19.65;;;;;;;-148.88;100.00;76287.09;4999658;28;20026;-83
2023/03/21 02:39:06;;;;;;;54.25;35.35;;;;;;;-148.88;100.00;76297.25;5016826;28;20550;-83
2023/03/21 02:41:48;;;;;;;46.45;18.40;;;;;;;-148.88;100.00;76299.28;4998801;28;20029;-83
2023/03/21 02:44:31;;;;;;;46.80;19.58;;;;;;;-148.88;100.00;76293.19;4998886;28;20512;-83
2023/03/21 02:47:02;;;;;;;50.38;19.05;;;;;;;-148.88;100.00;76285.06;4998863;28;20030;-84
2023/03/21 02:49:49;;;;;;;43.25;18.40;;;;;;;-148.88;100.00;76285.06;5016567;28;20030;-83
2023/03/21 02:52:19;;;;;;;42.28;18.50;;;;;;;-148.88;100.00;76291.16;5016805;28;20087;-84
2023/03/21 02:54:48;;;;;;;38.47;18.80;;;;;;;-148.88;100.00;76283.03;4998786;28;20072;-84
2023/03/21 02:57:17;;;;;;;44.80;18.70;;;;;;;-148.88;100.00;76283.03;5002729;28;20150;-84
2023/03/21 02:59:43;;;;;;;46.13;17.60;;;;;;;-148.88;100.00;76281.00;5000235;28;20048;-84
2023/03/21 03:02:09;;;;;;;49.75;18.63;;;;;;;-148.88;100.00;76281.00;5015779;28;20373;-83
2023/03/21 03:04:34;;;;;;;41.35;17.05;;;;;;;-148.88;100.00;76281.00;4998241;28;20025;-83
2023/03/21 03:07:34;;;;;;;41.05;16.02;;;;;;;-148.88;100.00;76268.81;4998155;28;20034;-84
2023/03/21 03:10:35;;;;;;;40.72;16.77;;;;;;;-148.88;100.00;76274.91;4978346;28;20135;-83
2023/03/21 03:13:20;;;;;;;45.63;17.35;;;;;;;-148.88;100.00;76274.91;4997900;28;20452;-83
2023/03/21 03:15:59;;;;;;;46.95;30.65;;;;;;;-148.88;100.00;76252.56;4998004;28;20113;-83
2023/03/21 03:18:39;;;;;;;40.92;16.75;;;;;;;-148.88;100.00;76268.81;4998066;28;20032;-83
2023/03/21 03:21:25;;;;;;;43.10;17.90;;;;;;;-148.88;100.00;76260.69;4997955;28;20053;-83
2023/03/21 03:23:58;;;;;;;42.30;17.05;;;;;;;-148.88;100.00;76266.78;4998065;28;20060;-83
2023/03/21 03:26:32;;;;;;;45.00;17.38;;;;;;;-148.88;100.00;76256.63;4998204;28;20378;-83
2023/03/21 03:29:05;;;;;;;37.75;14.95;;;;;;;-148.88;100.00;76260.69;5015942;28;20113;-84
2023/03/21 03:31:36;;;;;;;36.08;15.50;;;;;;;-148.88;100.00;76256.63;5018213;28;20064;-84
2023/03/21 03:34:08;;;;;;;43.22;26.27;;;;;;;-148.88;100.00;76252.56;5001762;28;20451;-84
2023/03/21 03:36:38;;;;;;;35.72;15.48;;;;;;;-148.88;100.00;76256.63;4999244;28;20017;-84
2023/03/21 03:39:07;;;;;;;40.58;17.05;;;;;;;-148.88;100.00;76256.63;4997578;28;20072;-83
2023/03/21 03:41:40;;;;;;;43.42;26.52;;;;;;;-148.88;100.00;76252.56;5015238;28;20053;-83
2023/03/21 03:44:06;;;;;;;34.05;14.63;;;;;;;-148.88;100.00;76246.47;4997601;28;20033;-83
2023/03/21 03:46:39;;;;;;;46.63;16.10;;;;;;;-148.88;100.00;76248.50;4997379;28;20026;-83
2023/03/21 03:49:12;;;;;;;48.85;29.70;;;;;;;-148.88;100.00;76246.47;5016092;28;20029;-83
2023/03/21 03:51:50;;;;;;;54.50;31.73;;;;;;;-148.88;100.00;76256.63;5015321;28;20034;-83
2023/03/21 03:54:19;;;;;;;43.95;17.55;;;;;;;-148.88;100.00;76248.50;4997330;28;20117;-83
2023/03/21 03:56:45;;;;;;;46.35;17.73;;;;;;;-148.88;100.00;76254.59;5015006;28;20018;-85
2023/03/21 03:59:11;;;;;;;42.58;18.25;;;;;;;-148.88;100.00;76260.69;4997474;28;20088;-85
2023/03/21 04:01:36;;;;;;;43.15;17.92;;;;;;;-148.88;100.00;76248.50;4997301;28;20037;-85
2023/03/21 04:04:02;;;;;;;44.95;17.25;;;;;;;-148.88;100.00;76256.63;4997725;28;20373;-83
2023/03/21 04:06:27;;;;;;;48.67;18.27;;;;;;;-148.88;100.00;76264.75;5017858;28;20503;-84
2023/03/21 04:08:56;;;;;;;51.03;18.27;;;;;;;-148.88;100.00;76254.59;4999340;28;20036;-84
2023/03/21 04:11:22;;;;;;;39.00;16.77;;;;;;;-148.88;100.00;76262.72;4999693;28;20107;-84
2023/03/21 04:13:47;;;;;;;58.58;31.02;;;;;;;-148.88;100.00;76250.53;4997060;28;20022;-83
2023/03/21 04:16:13;;;;;;;41.13;15.68;;;;;;;-148.88;100.00;76254.59;5014990;28;20057;-83
2023/03/21 04:18:40;;;;;;;49.25;28.83;;;;;;;-148.88;100.00;76246.47;5014424;28;20033;-83
2023/03/21 04:21:12;;;;;;;43.22;17.00;;;;;;;-148.88;100.00;76252.56;5014753;28;20022;-83
2023/03/21 04:23:38;;;;;;;41.05;16.42;;;;;;;-148.88;100.00;76256.63;4996786;28;20392;-83
2023/03/21 04:26:05;;;;;;;34.17;15.48;;;;;;;-148.88;100.00;76252.56;4996955;28;20022;-83
2023/03/21 04:28:32;;;;;;;43.30;15.48;;;;;;;-148.88;100.00;76256.63;5014585;28;20458;-83
2023/03/21 04:30:58;;;;;;;37.80;15.85;;;;;;;-148.88;100.00;76248.50;5014572;28;20029;-83
2023/03/21 04:33:26;;;;;;;37.47;14.93;;;;;;;-148.88;100.00;76248.50;5014819;28;20507;-83
2023/03/21 04:35:55;;;;;;;41.42;24.13;;;;;;;-148.88;100.00;76248.50;4997325;28;20480;-82
2023/03/21 04:38:29;;;;;;;33.28;14.52;;;;;;;-148.88;100.00;76250.53;5014448;28;20048;-82
2023/03/21 04:40:57;;;;;;;31.05;12.60;;;;;;;-148.88;100.00;76242.41;5010351;22;20034;-91
2023/03/21 04:44:16;;;;;;;34.13;12.70;;;;;;;-148.88;100.00;76244.44;5095553;23;20037;-85
2023/03/21 04:49:55;;;;;;;29.00;12.27;;;;;;;-148.88;100.00;76224.13;5065537;28;20029;-87
2023/03/21 04:53:07;;;;;;;;;;;;;;;;;;;;;
2023/03/21 04:55:50;;;;;;;;;;;;;;;;;;;;;
2023/03/21 04:58:35;;;;;;;37.15;20.52;;;;;;;-148.88;100.00;76224.13;5056318;28;20123;-86
2023/03/21 05:03:54;;;;;;;31.70;11.30;;;;;;;-148.88;100.00;76228.19;5055825;28;20027;-84
2023/03/21 05:06:38;;;;;;;36.00;20.35;;;;;;;-148.88;100.00;76224.13;5048586;28;20029;-86
2023/03/21 05:09:22;;;;;;;30.20;10.65;;;;;;;-148.88;100.00;76226.16;5055115;28;20028;-86
2023/03/21 05:12:05;;;;;;;32.75;13.10;;;;;;;-148.88;100.00;76228.19;5052223;28;20040;-86
2023/03/21 05:15:16;;;;;;;30.75;13.88;;;;;;;-148.88;100.00;76207.88;5054082;28;20029;-86
2023/03/21 05:17:57;;;;;;;30.92;11.40;;;;;;;-148.88;100.00;76216.00;5037847;28;20086;-86
2023/03/21 05:20:54;;;;;;;29.83;19.67;;;;;;;-148.88;100.00;76205.84;5053698;28;20037;-86
2023/03/21 05:24:21;;;;;;;;;;;;;;;;;;;;;
2023/03/21 05:27:17;;;;;;;;;;;;;;;;;;;;;
2023/03/21 05:30:00;;;;;;;34.50;12.80;;;;;;;-148.88;100.00;76211.94;5055044;28;20033;-88
2023/03/21 05:32:39;;;;;;;;;;;;;;;;;;;;;
2023/03/21 05:35:05;;;;;;;28.83;11.27;;;;;;;-148.88;100.00;76203.81;5055130;28;20090;-88
2023/03/21 05:38:00;;;;;;;37.20;21.13;;;;;;;-148.88;100.00;76207.88;5054159;28;20060;-88
2023/03/21 05:40:34;;;;;;;29.50;11.68;;;;;;;-148.88;100.00;76197.72;5050331;28;20407;-87
2023/03/21 05:43:00;;;;;;;38.60;13.63;;;;;;;-148.88;100.00;76199.75;5053509;28;20029;-87
2023/03/21 05:45:43;;;;;;;30.77;13.35;;;;;;;-148.88;100.00;76191.63;5053672;28;20028;-87
2023/03/21 05:48:25;;;;;;;26.17;11.77;;;;;;;-148.88;100.00;76211.94;5052585;28;20037;-87
2023/03/21 05:50:53;;;;;;;34.25;13.27;;;;;;;-148.88;100.00;76203.81;5055620;28;20379;-88
2023/03/21 05:53:18;;;;;;;37.35;12.38;;;;;;;-148.88;100.00;76199.75;5035547;23;20411;-78
2023/03/21 05:55:44;;;;;;;37.88;20.30;;;;;;;-148.88;100.00;76193.66;5020929;28;20475;-78
2023/03/21 05:58:09;;;;;;;24.85;10.88;;;;;;;-148.88;100.00;76187.56;5023824;28;20041;-78
2023/03/21 06:00:35;;;;;;;39.20;20.50;;;;;;;-148.88;100.00;76193.66;5021802;28;20085;-78
2023/03/21 06:03:00;;;;;;;26.95;10.55;;;;;;;-148.88;100.00;76187.56;5017888;28;20087;-78
2023/03/21 06:05:26;;;;;;;34.28;11.95;;;;;;;-148.88;100.00;76193.66;5019100;28;20026;-77
2023/03/21 06:07:54;;;;;;;28.33;11.88;;;;;;;-148.88;100.00;76183.50;5018788;28;20029;-78
2023/03/21 06:10:22;;;;;;;35.30;11.63;;;;;;;-148.88;100.00;76185.53;5019265;28;20442;-78
2023/03/21 06:12:47;;;;;;;27.05;10.60;;;;;;;-148.88;100.00;76177.41;5016388;28;20049;-78
2023/03/21 06:15:12;;;;;;;26.40;10.68;;;;;;;-148.88;100.00;76171.31;5017409;28;20025;-77
2023/03/21 06:17:38;;;;;;;24.38;10.35;;;;;;;-148.88;100.00;76171.31;5017469;28;20021;-77
2023/03/21 06:20:05;;;;;;;27.50;10.77;;;;;;;-148.88;100.00;76167.25;5017216;28;20545;-78
2023/03/21 06:22:31;;;;;;;36.17;19.55;;;;;;;-148.88;100.00;76163.19;5017554;28;20033;-78
2023/03/21 06:24:57;;;;;;;26.58;10.82;;;;;;;-148.88;100.00;76159.13;5016591;28;20018;-79
2023/03/21 06:27:23;;;;;;;30.13;10.95;;;;;;;-148.88;100.00;76146.94;5017947;28;20026;-78
2023/03/21 06:29:48;;;;;;;32.38;12.90;;;;;;;-148.88;100.00;76148.97;5017428;28;20026;-79
2023/03/21 06:32:15;;;;;;;25.45;11.65;;;;;;;-148.88;100.00;76146.94;5016086;28;20135;-79
2023/03/21 06:34:40;;;;;;;25.45;11.40;;;;;;;-148.88;100.00;76142.88;5017145;28;20048;-78
2023/03/21 06:37:05;;;;;;;29.58;17.75;;;;;;;-148.88;100.00;76134.72;5015834;28;20378;-78
2023/03/21 06:39:31;;;;;;;34.85;11.25;;;;;;;-148.88;100.00;76140.84;5017821;28;20026;-78
2023/03/21 06:41:57;;;;;;;29.20;10.95;;;;;;;-148.88;100.00;76142.88;5018422;28;20022;-79
2023/03/21 06:44:23;;;;;;;34.97;19.08;;;;;;;-148.88;100.00;76146.94;5016977;28;20100;-78
2023/03/21 06:46:49;;;;;;;22.80;9.73;;;;;;;-148.88;100.00;76134.72;5017356;28;20097;-77
2023/03/21 06:49:14;;;;;;;26.50;11.75;;;;;;;-148.88;100.00;76142.88;5015330;28;20494;-78
2023/03/21 06:51:39;;;;;;;23.63;10.07;;;;;;;-148.88;100.00;76138.81;5015802;28;20057;-78
2023/03/21 06:54:07;;;;;;;27.52;16.48;;;;;;;-148.88;100.00;76130.69;5013131;28;20434;-77
2023/03/21 06:56:33;;;;;;;18.65;9.25;;;;;;;-148.88;100.00;76134.72;5013884;28;20022;-77
2023/03/21 06:58:58;;;;;;;31.88;17.15;;;;;;;-148.88;100.00;76132.72;4996814;28;20038;-78
2023/03/21 07:01:26;;;;;;;19.50;8.93;;;;;;;-148.88;100.00;76126.59;4997833;28;20030;-79
2023/03/21 07:03:52;;;;;;;26.20;15.52;;;;;;;-148.88;100.00;76122.56;4994332;28;20029;-77
2023/03/21 07:06:18;;;;;;;19.75;9.20;;;;;;;-148.88;100.00;76126.59;4994352;28;20034;-78
2023/03/21 07:08:43;;;;;;;24.63;9.55;;;;;;;-148.88;100.00;76112.41;5000431;28;20030;-79
2023/03/21 07:11:08;;;;;;;25.75;9.45;;;;;;;-148.88;100.00;76118.47;5000035;28;20029;-79
2023/03/21 07:13:34;;;;;;;25.88;15.90;;;;;;;-148.88;100.00;76112.41;4999111;28;20392;-79
2023/03/21 07:15:59;;;;;;;22.25;9.98;;;;;;;-148.88;100.00;76110.34;4997614;28;20026;-79
2023/03/21 07:18:25;;;;;;;27.55;15.02;;;;;;;-148.88;100.00;76090.03;4999296;28;20033;-79
2023/03/21 07:20:51;;;;;;;27.10;15.52;;;;;;;-148.88;100.00;76102.22;4997379;28;20475;-78
2023/03/21 07:23:21;;;;;;;20.33;9.38;;;;;;;-148.88;100.00;76094.09;4997419;28;20034;-79
2023/03/21 07:25:48;;;;;;;22.85;9.50;;;;;;;-148.88;100.00;76094.09;4998786;28;20126;-79
2023/03/21 07:28:15;;;;;;;27.08;15.25;;;;;;;-148.88;100.00;76100.19;5008716;28;20454;-78
2023/03/21 07:30:40;;;;;;;22.48;9.32;;;;;;;-148.88;100.00;76102.22;5016753;28;20443;-79
2023/03/21 07:33:06;;;;;;;24.02;15.27;;;;;;;-148.88;100.00;76090.03;5018780;28;20487;-78
2023/03/21 07:35:33;;;;;;;26.02;9.10;;;;;;;-148.88;100.00;76069.72;5016995;28;20029;-78
2023/03/21 07:37:58;;;;;;;25.58;15.38;;;;;;;-148.88;100.00;76096.13;5016645;28;20026;-77
2023/03/21 07:40:24;;;;;;;23.75;9.60;;;;;;;-148.88;100.00;76088.00;5018802;28;20084;-77
2023/03/21 07:42:49;;;;;;;21.08;8.68;;;;;;;-148.88;100.00;76098.16;5017546;28;20521;-78
2023/03/21 07:45:19;;;;;;;23.58;15.48;;;;;;;-148.88;100.00;76085.97;5017779;28;20025;-78
2023/03/21 07:47:45;;;;;;;20.67;8.80;;;;;;;-148.88;100.00;76085.97;5016637;28;20037;-78
2023/03/21 07:50:10;;;;;;;26.13;15.13;;;;;;;-148.88;100.00;76069.72;5017874;28;20029;-78
2023/03/21 07:52:36;;;;;;;20.58;8.93;;;;;;;-148.88;100.00;76073.78;5017124;28;20068;-77
2023/03/21 07:55:01;;;;;;;23.88;15.15;;;;;;;-148.88;100.00;76083.94;5022305;28;20029;-78
2023/03/21 07:57:26;;;;;;;30.73;15.90;;;;;;;-148.88;100.00;76077.84;5016101;28;20044;-78
2023/03/21 07:59:52;;;;;;;32.40;17.05;;;;;;;-148.88;100.00;76088.00;5015278;28;20105;-78
2023/03/21 08:02:17;;;;;;;19.52;8.68;;;;;;;-148.88;100.00;76090.03;5014139;28;20034;-78
2023/03/21 08:04:43;;;;;;;27.48;9.43;;;;;;;-148.88;100.00;76085.97;5013976;28;20156;-78
2023/03/21 08:07:09;;;;;;;21.88;8.25;;;;;;;-148.88;100.00;76073.78;5015626;28;20102;-78
2023/03/21 08:09:36;;;;;;;30.60;16.40;;;;;;;-148.88;100.00;76073.78;5016093;28;20545;-77
2023/03/21 08:12:02;;;;;;;22.02;8.80;;;;;;;-148.88;100.00;76081.91;5014055;28;20112;-78
2023/03/21 08:14:27;;;;;;;23.05;13.77;;;;;;;-148.88;100.00;76069.72;5014159;28;20058;-78
2023/03/21 08:16:52;;;;;;;25.65;15.68;;;;;;;-148.88;100.00;76085.97;5012488;28;20018;-77
2023/03/21 08:19:20;;;;;;;22.70;9.10;;;;;;;-148.88;100.00;76081.91;5013289;28;20038;-78
2023/03/21 08:21:46;;;;;;;22.80;9.63;;;;;;;-148.88;100.00;76069.72;5013004;28;20459;-78
2023/03/21 08:24:14;;;;;;;21.50;14.13;;;;;;;-148.88;100.00;76094.09;5014703;28;20125;-79
2023/03/21 08:26:40;;;;;;;23.02;8.57;;;;;;;-148.88;100.00;76094.09;5015582;28;20108;-79
2023/03/21 08:29:06;;;;;;;25.60;10.25;;;;;;;-148.88;100.00;76085.97;5016557;28;20026;-79
2023/03/21 08:31:31;;;;;;;15.75;8.85;;;;;;;-148.88;100.00;76083.94;5016529;28;20083;-79
2023/03/21 08:33:56;;;;;;;21.75;9.63;;;;;;;-148.88;100.00;76100.19;5014559;28;20382;-79
2023/03/21 08:36:22;;;;;;;28.35;16.38;;;;;;;-148.88;100.00;76100.19;5015466;28;20024;-79
2023/03/21 08:38:48;;;;;;;21.25;10.18;;;;;;;-148.88;100.00;76092.06;5016752;28;20038;-80
2023/03/21 08:41:17;;;;;;;20.42;9.98;;;;;;;-148.88;100.00;76085.97;5016365;28;20099;-79
2023/03/21 08:43:43;;;;;;;20.88;8.90;;;;;;;-148.88;100.00;76090.03;5016411;28;20025;-80
2023/03/21 08:46:08;;;;;;;20.80;9.43;;;;;;;-148.88;100.00;76106.28;5015924;28;20024;-79
2023/03/21 08:48:33;;;;;;;23.48;8.77;;;;;;;-148.88;100.00;76114.41;5015569;28;20041;-80
2023/03/21 08:51:00;;;;;;;21.05;8.43;;;;;;;-148.88;100.00;76126.59;5013865;28;20025;-78
2023/03/21 08:53:25;;;;;;;33.55;16.38;;;;;;;-148.88;100.00;76118.47;4978474;28;1045771;-79
2023/03/21 08:55:50;;;;;;;25.73;10.32;;;;;;;-148.88;100.00;76136.78;5015171;28;20025;-79
2023/03/21 08:58:16;;;;;;;19.83;9.18;;;;;;;-148.88;100.00;76124.56;5015394;28;20026;-79
2023/03/21 09:00:41;;;;;;;25.75;14.77;;;;;;;-148.88;100.00;76134.72;5015117;28;20076;-79
2023/03/21 09:03:07;;;;;;;21.58;8.48;;;;;;;-148.88;100.00;76132.72;5017319;28;20030;-79
2023/03/21 09:05:32;;;;;;;23.08;9.57;;;;;;;-148.88;100.00;76138.81;5016886;28;20033;-79
2023/03/21 09:08:00;;;;;;;31.00;17.73;;;;;;;-148.88;100.00;76136.78;5016187;28;20029;-79
2023/03/21 09:10:25;;;;;;;23.08;9.45;;;;;;;-148.88;100.00;76134.72;5014963;28;20570;-79
2023/03/21 09:12:53;;;;;;;25.00;9.65;;;;;;;-148.88;100.00;76136.78;5016828;28;20571;-79
2023/03/21 09:15:20;;;;;;;35.45;19.10;;;;;;;-148.88;100.00;76134.72;5015297;28;20028;-78
2023/03/21 09:17:48;;;;;;;27.80;10.75;;;;;;;-148.88;100.00;76140.84;5016861;28;20021;-79
2023/03/21 09:20:19;;;;;;;36.13;19.42;;;;;;;-148.88;100.00;76128.66;5016393;28;20514;-79
2023/03/21 09:22:46;;;;;;;24.88;11.07;;;;;;;-148.88;100.00;76130.69;5018405;28;20029;-79
2023/03/21 09:25:12;;;;;;;30.40;12.02;;;;;;;-148.88;100.00;76138.81;5017077;28;20030;-79
2023/03/21 09:27:38;;;;;;;39.42;22.45;;;;;;;-148.88;100.00;76132.72;5015428;28;20394;-78
2023/03/21 09:30:05;;;;;;;34.97;22.25;;;;;;;-148.88;100.00;76146.94;5014811;28;20515;-79
2023/03/21 09:32:30;;;;;;;27.38;12.00;;;;;;;-148.88;100.00;76146.94;5015499;28;20080;-79
2023/03/21 09:34:56;;;;;;;37.45;23.00;;;;;;;-148.88;100.00;76118.47;5015406;28;20029;-80
2023/03/21 09:37:21;;;;;;;27.13;11.98;;;;;;;-148.88;100.00;76130.69;5015611;28;20026;-80
2023/03/21 09:39:49;;;;;;;36.63;22.95;;;;;;;-148.88;100.00;76126.59;5016966;28;20100;-79
2023/03/21 09:42:40;;;;;;;35.13;14.48;;;;;;;-148.88;100.00;76126.59;5016606;28;20029;-79
2023/03/21 09:45:20;;;;;;;30.85;13.93;;;;;;;-148.88;100.00;76124.56;5015022;28;20025;-79
2023/03/21 09:47:55;;;;;;;29.17;12.85;;;;;;;-148.88;100.00;76118.47;5016826;28;20395;-79
2023/03/21 09:50:35;;;;;;;40.00;13.65;;;;;;;-148.88;100.00;76098.16;5019517;28;20052;-79
2023/03/21 09:53:06;;;;;;;32.17;13.48;;;;;;;-148.88;100.00;76100.19;5018509;28;20562;-80
2023/03/21 09:55:38;;;;;;;29.83;12.80;;;;;;;-148.88;100.00;76102.22;5016032;28;20079;-78
2023/03/21 09:58:27;;;;;;;31.00;14.75;;;;;;;-148.88;100.00;76100.19;5016793;28;20026;-79
2023/03/21 10:01:06;;;;;;;28.23;13.40;;;;;;;-148.88;100.00;76092.06;5015060;28;20108;-79
2023/03/21 10:03:36;;;;;;;27.80;13.27;;;;;;;-148.88;100.00;76053.47;5014925;28;20029;-78
2023/03/21 10:06:14;;;;;;;32.65;14.18;;;;;;;-148.88;100.00;76069.72;5014965;28;20022;-79
2023/03/21 10:08:44;;;;;;;36.95;23.05;;;;;;;-148.88;100.00;76073.78;5014903;28;20022;-78
2023/03/21 10:11:20;;;;;;;37.53;22.80;;;;;;;-148.88;100.00;76081.91;5015166;28;20033;-79
2023/03/21 10:13:57;;;;;;;39.10;23.45;;;;;;;-148.88;100.00;76051.44;5015763;28;20093;-80
2023/03/21 10:16:43;;;;;;;26.67;12.05;;;;;;;-148.88;100.00;76049.41;5014900;28;20385;-79
2023/03/21 10:19:14;;;;;;;28.45;12.27;;;;;;;-148.88;100.00;76045.34;5014861;28;20475;-79
2023/03/21 10:21:45;;;;;;;29.17;12.93;;;;;;;-148.88;100.00;76041.28;5016423;28;20026;-79
2023/03/21 10:24:23;;;;;;;35.95;22.58;;;;;;;-148.88;100.00;76039.25;5014934;28;20025;-80
2023/03/21 10:26:50;;;;;;;29.10;12.13;;;;;;;-148.88;100.00;76045.34;5016362;28;20029;-80
2023/03/21 10:29:17;;;;;;;26.92;11.60;;;;;;;-148.88;100.00;76053.47;5016547;28;20036;-78
2023/03/21 10:31:46;;;;;;;34.75;20.67;;;;;;;-148.88;100.00;76045.34;5014498;28;20018;-79
2023/03/21 10:34:17;;;;;;;29.23;12.05;;;;;;;-148.88;100.00;76043.31;5016391;28;20394;-79
2023/03/21 10:36:43;;;;;;;32.50;19.75;;;;;;;-148.88;100.00;76057.53;5016960;28;20080;-79
2023/03/21 10:39:23;;;;;;;34.13;19.98;;;;;;;-148.88;100.00;76037.22;5015635;28;20391;-78
2023/03/21 10:41:49;;;;;;;31.35;20.15;;;;;;;-148.88;100.00;76020.97;5019055;28;20024;-80
2023/03/21 10:44:18;;;;;;;28.73;10.93;;;;;;;-148.88;100.00;76002.69;5018175;28;20124;-80
2023/03/21 10:46:50;;;;;;;24.45;11.30;;;;;;;-148.88;100.00;75998.63;5019613;28;20029;-80
2023/03/21 10:49:15;;;;;;;27.77;12.02;;;;;;;-148.88;100.00;76004.72;5019586;28;20030;-79
2023/03/21 10:51:41;;;;;;;25.65;11.07;;;;;;;-148.88;100.00;76000.66;5017619;28;20026;-79
2023/03/21 10:54:12;;;;;;;26.55;10.77;;;;;;;-148.88;100.00;75992.53;5018264;28;20074;-80
2023/03/21 10:56:44;;;;;;;31.23;19.40;;;;;;;-148.88;100.00;75980.34;5018231;28;20065;-79
2023/03/21 10:59:17;;;;;;;27.83;18.42;;;;;;;-148.88;100.00;75978.31;5019813;28;20028;-79
2023/03/21 11:01:47;;;;;;;22.20;9.65;;;;;;;-148.88;100.00;75960.03;5018290;28;20022;-80
2023/03/21 11:04:20;;;;;;;25.92;17.75;;;;;;;-148.88;100.00;75943.78;5019535;28;20087;-80
2023/03/21 11:06:53;;;;;;;25.77;17.40;;;;;;;-148.88;100.00;75929.56;5018148;28;20022;-79
2023/03/21 11:09:23;;;;;;;26.30;16.80;;;;;;;-148.88;100.00;75927.53;5018150;28;20061;-78
2023/03/21 11:12:10;;;;;;;21.25;9.88;;;;;;;-148.88;100.00;75927.53;5018597;28;20160;-78
2023/03/21 11:14:39;;;;;;;22.70;9.43;;;;;;;-148.88;100.00;75927.53;5017837;28;20116;-78
2023/03/21 11:17:16;;;;;;;23.75;16.48;;;;;;;-148.88;100.00;75935.66;5018826;28;20420;-79
2023/03/21 11:19:52;;;;;;;26.17;16.45;;;;;;;-148.88;100.00;75933.63;5019194;28;20030;-79
2023/03/21 11:22:21;;;;;;;21.35;10.57;;;;;;;-148.88;100.00;75915.34;5018720;28;20026;-79
2023/03/21 11:24:50;;;;;;;25.38;14.88;;;;;;;-148.88;100.00;75931.59;5017397;28;20383;-79